EDHI/XFW METAR and TAF weather

Enter ICAO airport designator
Station Type Date Time Source
EDHI METAR 2021/07/28 20:50 UTC NOAA

EDHI 282050Z AUTO 24009KT 9999 // FEW045/// SCT051/// BKN063/// 18/14 Q1008


Station Type Date Time Source
EDHI Decoded METAR 2021/07/28 20:50 UTC NOAA

Hamburg-Finkenwerder, Germany (EDHI) 53-32N 009-50E 13M
Jul 28, 2021 - 04:50 PM EDT / 2021.07.28 2050 UTC
Wind: from the WSW (240 degrees) at 10 MPH (9 KT):0
Visibility: greater than 7 mile(s):0
Sky conditions: mostly cloudy
Temperature: 64 F (18 C)
Dew Point: 57 F (14 C)
Relative Humidity: 77%
Pressure (altimeter): 29.77 in. Hg (1008 hPa)
ob: EDHI 282050Z AUTO 24009KT 9999 // FEW045/// SCT051/// BKN063/// 18/14 Q1008
cycle: 21

Station Type Date Time Source
EDHI TAF 2010/02/22 14:20 UTC NOAA

METAR EDHI 221420Z 17005KT 9999 BKN030 05/02 Q0989

Example: see airport list